Flight Track Log - Related Links

Times and Time Zones

All times are in EDT time to prevent confusion due to time zone crossing. See the JZA7832 flight status page for this flight to view local times or setup timezone preferences in your user account.

Time Position Orientation Groundspeed Altitude Reporting Facility
EDT Latitude Longitude Course Direction KTS MPH feet Rate Location/Type
Tue 08:18:49 PM 48.3167 -81.3167 162° South 280 322 9,900  Level Toronto Center
Tue 08:19:00 PM 48.1575 -81.5644 200° South  Level FlightAware Approximate
Tue 08:19:49 PM 48.2333 -81.2833 165° South 270 311 11,700  Level Toronto Center
Tue 08:20:00 PM 48.0768 -81.6093 200° South  Level FlightAware Approximate
Tue 08:20:49 PM 48.1500 -81.2500 165° South 290 334 13,300  Level Toronto Center
Tue 08:21:00 PM 47.9958 -81.5697 162° South  Level Estimated
Tue 08:21:49 PM 48.0833 -81.2333 171° South 300 345 14,900  Level Toronto Center
Tue 08:22:00 PM 47.9147 -81.5302 162° South  Level Estimated
Tue 08:22:49 PM 47.9833 -81.2000 167° South 300 345 16,900  Level Toronto Center
Tue 08:23:00 PM 47.8337 -81.4909 162° South  Level Estimated
Tue 08:23:49 PM 47.9167 -81.1667 161° South 290 334 18,400  Level Toronto Center
Tue 08:24:00 PM 47.7526 -81.4517 162° South  Level Estimated
Tue 08:24:49 PM 47.8333 -81.1667 180° South 290 334 20,200  Level Toronto Center
Tue 08:25:49 PM 47.7667 -81.1500 170° South 280 322 22,100 1,650 Climbing Toronto Center
Tue 08:26:49 PM 47.6833 -81.1167 165° South 270 311 23,500 1,400 Climbing Toronto Center
Tue 08:27:49 PM 47.6167 -81.0833 161° South 260 299 24,900 750 Climbing Toronto Center
Tue 08:28:49 PM 47.5333 -81.0667 172° South 280 322 25,000 50 Climbing Toronto Center
Tue 08:29:49 PM 47.4500 -81.0333 165° South 320 368 25,000  Level Toronto Center
Tue 08:30:49 PM 47.3500 -81.0167 161° South 340 391 25,000  Level Toronto Center
Tue 08:31:00 PM 47.3496 -81.0165 161° South  Level FlightAware Approximate
Tue 08:31:49 PM 47.2500 -80.9833 167° South 350 403 25,000  Level Toronto Center
Tue 08:32:49 PM 47.1667 -80.9500 165° South 360 414 25,000  Level Toronto Center
Tue 08:33:49 PM 47.0667 -80.9333 174° South 360 414 25,000  Level Toronto Center
Tue 08:34:49 PM 46.9833 -80.9000 165° South 360 414 25,000  Level Toronto Center
Tue 08:35:49 PM 46.8833 -80.8833 174° South 360 414 25,000  Level Toronto Center
Tue 08:36:49 PM 46.7833 -80.8500 167° South 360 414 25,000  Level Toronto Center
Tue 08:37:49 PM 46.6833 -80.8167 167° South 360 414 25,000  Level Toronto Center
Tue 08:38:49 PM 46.5833 -80.8000 173° South 360 414 25,000  Level Toronto Center
Tue 08:39:49 PM 46.4833 -80.7667 167° South 360 414 25,000  Level Toronto Center
Tue 08:40:49 PM 46.3833 -80.7500 173° South 360 414 25,000  Level Toronto Center
Tue 08:41:49 PM 46.2833 -80.7167 167° South 360 414 25,000  Level Toronto Center
Tue 08:42:49 PM 46.1833 -80.6833 167° South 360 414 25,000  Level Toronto Center
Tue 08:43:49 PM 46.0833 -80.6333 161° South 370 426 25,000  Level Toronto Center
Tue 08:44:49 PM 45.9833 -80.6167 173° South 360 414 25,000  Level Toronto Center
Tue 08:45:49 PM 45.8833 -80.5833 167° South 370 426 25,000  Level Toronto Center
Tue 08:46:49 PM 45.7833 -80.5667 173° South 370 426 25,000  Level Toronto Center
Tue 08:47:49 PM 45.6833 -80.5333 167° South 370 426 25,000  Level Toronto Center
Tue 08:48:49 PM 45.5833 -80.5167 173° South 370 426 25,000  Level Toronto Center
Tue 08:49:49 PM 45.4833 -80.4833 167° South 370 426 25,000  Level Toronto Center
Tue 08:50:49 PM 45.3833 -80.4667 173° South 370 426 25,000  Level Toronto Center
Tue 08:51:49 PM 45.2833 -80.4333 167° South 360 414 25,000  Level Toronto Center
Tue 08:52:49 PM 45.1833 -80.4167 173° South 360 414 25,000  Level Toronto Center
Tue 08:53:49 PM 45.0833 -80.3833 167° South 360 414 25,000  Level Toronto Center
Tue 08:54:49 PM 44.9833 -80.3667 173° South 360 414 25,000 -700 Level Toronto Center
Tue 08:55:49 PM 44.8833 -80.3167 160° South 360 414 23,600 -1,350 Descending Toronto Center
Tue 08:56:49 PM 44.7833 -80.3167 180° South 350 403 22,300 -1,300 Descending Toronto Center
Tue 08:57:49 PM 44.7000 -80.2833 164° South 330 380 21,000 -1,350 Descending Toronto Center
Tue 08:58:49 PM 44.6000 -80.2667 173° South 330 380 19,600 -1,450 Descending Toronto Center
Tue 08:59:49 PM 44.5167 -80.2333 164° South 330 380 18,100 -1,350 Descending Toronto Center
Tue 09:00:49 PM 44.4167 -80.2167 173° South 330 380 16,900 -1,250 Descending Toronto Center
Tue 09:01:49 PM 44.3333 -80.2000 172° South 320 368 15,600 -1,300 Descending Toronto Center
Tue 09:02:49 PM 44.2500 -80.1667 164° South 320 368 14,300 -1,250 Descending Toronto Center
Tue 09:03:49 PM 44.1667 -80.1500 172° South 320 368 13,100 -1,250 Descending Toronto Center
Tue 09:04:49 PM 44.0833 -80.0667 144° Southeast 320 368 11,800 -1,350 Descending Toronto Center
Tue 09:05:49 PM 44.0167 -80.0000 144° Southeast 330 380 10,400 -1,250 Descending Toronto Center
Tue 09:06:49 PM 43.9500 -79.9333 144° Southeast 310 357 9,300 -1,000 Descending Toronto Center
Tue 09:07:49 PM 43.8833 -79.8667 144° Southeast 290 334 8,400 -650 Descending Toronto Center
Tue 09:08:49 PM 43.8167 -79.8000 144° Southeast 280 322 8,000 -600 Descending Toronto Center
Tue 09:09:49 PM 43.7667 -79.7333 136° Southeast 270 311 7,200 -1,200 Descending Toronto Center
Tue 09:10:49 PM 43.7000 -79.7500 190° South 240 276 5,600 -1,100 Descending Toronto Center
Tue 09:11:49 PM 43.6667 -79.8167 235° Southwest 220 253 5,000 -300 Descending Toronto Center
Tue 09:12:49 PM 43.6167 -79.8667 216° Southwest 210 242 5,000  Level Toronto Center
Tue 09:13:49 PM 43.5833 -79.9333 235° Southwest 200 230 5,000  Level Toronto Center
Tue 09:14:49 PM 43.5500 -79.9833 227° Southwest 190 219 5,000  Level Toronto Center
Tue 09:15:49 PM 43.5167 -80.0167 216° Southwest 190 219 5,000  Level Toronto Center
Tue 09:16:49 PM 43.4667 -80.0167 180° South 180 207 5,000 -400 Level Toronto Center
Tue 09:17:49 PM 43.4500 -79.9500 109° East 220 253 4,200 -500 Descending Toronto Center
Tue 09:18:49 PM 43.5000 -79.8833 44° Northeast 230 265 4,000 -100 Descending Toronto Center
Tue 09:19:49 PM 43.5333 -79.8167 55° Northeast 220 253 4,000 -500 Level Toronto Center
Tue 09:20:49 PM 43.5833 -79.7667 36° Northeast 200 230 3,000 -1,000 Descending Toronto Center
Tue 09:21:49 PM 43.6167 -79.7333 36° Northeast 190 219 2,000 -950 Descending Toronto Center
Tue 09:22:49 PM 43.6500 -79.6833 47° Northeast 150 173 1,100 -700 Descending Toronto Center
Tue 09:23:49 PM 43.6667 -79.6333 65° Northeast 110 127 600 -500 Descending Toronto Center

Login

Don't have an account? Register now (free) for customized features, flight alerts, and more!